Flight Track Log - Related Links

Times and Time Zones

All times are in EDT time to prevent confusion due to time zone crossing. See the CTL14 flight status page for this flight to view local times or setup timezone preferences in your user account.

Time Position Orientation Groundspeed Altitude Reporting Facility
EDT Latitude Longitude Course Direction KTS MPH feet Rate Location/Type
Tue 12:17:32 AM 42.1333 -87.8333 66° East 132 152 2,200  Level Chicago TRACON
Tue 12:18:11 AM 42.1367 -87.8061 81° East 131 151 2,700 667 Climbing Chicago Center
Tue 12:19:11 AM 42.1394 -87.7519 86° East 136 157 3,300 595 Climbing Chicago Center
Tue 12:20:12 AM 42.1422 -87.6944 86° East 144 166 3,900 595 Climbing Chicago Center
Tue 12:21:12 AM 42.1286 -87.6442 110° East 150 173 4,500 593 Climbing Chicago Center
Tue 12:21:33 AM 42.1167 -87.6333 146° Southeast 138 159 4,700 492 Climbing Chicago TRACON
Tue 12:23:14 AM 42.0886 -87.5489 114° Southeast 148 170 5,500 484 Climbing Chicago Center
Tue 12:24:14 AM 42.0689 -87.5011 119° Southeast 148 170 6,000 446 Climbing Chicago Center
Tue 12:25:15 AM 42.0483 -87.4522 120° Southeast 149 171 6,400 397 Climbing Chicago Center
Tue 12:26:15 AM 42.0264 -87.4019 120° Southeast 154 177 6,800 248 Climbing Chicago Center
Tue 12:27:16 AM 42.0053 -87.3503 119° Southeast 157 181 6,900 49 Climbing Chicago Center
Tue 12:28:17 AM 41.9817 -87.2972 121° Southeast 164 189 6,900 347 Level Chicago Center
Tue 12:29:17 AM 41.9603 -87.2478 120° Southeast 156 180 7,600 545 Climbing Chicago Center
Tue 12:30:18 AM 41.9397 -87.2000 120° Southeast 150 173 8,000 397 Climbing Chicago Center
Tue 12:31:18 AM 41.9194 -87.1519 120° Southeast 150 173 8,400 397 Climbing Chicago Center
Tue 12:32:19 AM 41.8983 -87.1053 121° Southeast 149 171 8,800 246 Climbing Chicago Center
Tue 12:33:20 AM 41.8775 -87.0544 119° Southeast 154 177 8,900 99 Climbing Chicago Center
Tue 12:34:20 AM 41.8494 -86.9900 120° Southeast 163 188 9,000 50 Climbing Chicago Center
Tue 12:35:20 AM 41.8253 -86.9361 121° Southeast 167 192 9,000 -50 Level Chicago Center
Tue 12:36:21 AM 41.8017 -86.8831 121° Southeast 166 191 8,900  Descending Chicago Center
Tue 12:37:21 AM 41.7803 -86.8275 117° Southeast 169 194 9,000 50 Climbing Chicago Center
Tue 12:38:22 AM 41.7575 -86.7744 120° Southeast 166 191 9,000  Level Chicago Center
Tue 12:39:22 AM 41.7286 -86.7267 129° Southeast 164 189 9,000  Level Chicago Center
Tue 12:40:23 AM 41.7053 -86.6783 123° Southeast 168 193 9,000  Level Chicago Center
Tue 12:41:23 AM 41.6800 -86.6275 124° Southeast 167 192 9,000  Level Chicago Center
Tue 12:42:24 AM 41.6544 -86.5758 123° Southeast 167 192 9,000  Level Chicago Center
Tue 12:43:24 AM 41.6317 -86.5206 119° Southeast 169 194 9,000  Level Chicago Center
Tue 12:44:25 AM 41.6081 -86.4664 120° Southeast 169 194 9,000  Level Chicago Center
Tue 12:45:25 AM 41.5861 -86.4122 118° Southeast 166 191 9,000  Level Chicago Center
Tue 12:46:25 AM 41.5625 -86.3592 121° Southeast 167 192 9,000  Level Chicago Center
Tue 12:47:26 AM 41.5339 -86.2958 121° Southeast 167 192 9,000  Level Chicago Center
Tue 12:48:26 AM 41.5108 -86.2431 120° Southeast 167 192 9,000  Level Chicago Center
Tue 12:49:27 AM 41.4872 -86.1906 121° Southeast 165 190 9,000  Level Chicago Center
Tue 12:50:27 AM 41.4628 -86.1381 122° Southeast 167 192 9,000  Level Chicago Center
Tue 12:51:27 AM 41.4397 -86.0853 120° Southeast 167 192 9,000 -50 Level Chicago Center
Tue 12:52:28 AM 41.4161 -86.0317 120° Southeast 166 191 8,900 -50 Descending Chicago Center
Tue 12:53:28 AM 41.3933 -85.9775 119° Southeast 169 194 8,900  Level Chicago Center
Tue 12:54:28 AM 41.3697 -85.9258 121° Southeast 166 191 8,900 50 Level Chicago Center
Tue 12:55:29 AM 41.3453 -85.8725 121° Southeast 169 194 9,000  Climbing Chicago Center
Tue 12:56:29 AM 41.3214 -85.8214 122° Southeast 164 189 8,900  Descending Chicago Center
Tue 12:57:30 AM 41.2967 -85.7667 121° Southeast 172 198 9,000 50 Climbing Chicago Center
Tue 12:58:30 AM 41.2744 -85.7117 118° Southeast 171 197 9,000  Level Chicago Center
Tue 12:59:33 AM 41.2511 -85.6578 120° Southeast 171 197 9,000 -48 Level Chicago Center
Tue 01:00:34 AM 41.2264 -85.6050 122° Southeast 170 196 8,900  Descending Chicago Center
Tue 01:01:34 AM 41.2025 -85.5503 120° Southeast 170 196 9,000  Climbing Chicago Center
Tue 01:02:35 AM 41.1794 -85.4958 119° Southeast 170 196 8,900 -50 Descending Chicago Center
Tue 01:03:35 AM 41.1569 -85.4400 118° Southeast 172 198 8,900 50 Level Chicago Center
Tue 01:04:35 AM 41.1278 -85.3750 121° Southeast 172 198 9,000  Climbing Chicago Center
Tue 01:05:36 AM 41.1061 -85.3206 118° Southeast 170 196 8,900 -50 Descending Chicago Center
Tue 01:06:36 AM 41.0825 -85.2669 120° Southeast 169 194 8,900  Level Chicago Center
Tue 01:07:37 AM 41.0569 -85.2150 123° Southeast 170 196 8,900  Level Chicago Center
Tue 01:08:37 AM 41.0314 -85.1650 124° Southeast 168 193 8,900 50 Level Chicago Center
Tue 01:09:37 AM 41.0056 -85.1153 125° Southeast 165 190 9,000 50 Climbing Chicago Center
Tue 01:10:38 AM 40.9867 -85.0592 114° Southeast 165 190 9,000  Level Chicago Center
Tue 01:11:38 AM 40.9644 -85.0050 119° Southeast 166 191 9,000 -50 Level Chicago Center
Tue 01:12:38 AM 40.9419 -84.9486 118° Southeast 170 196 8,900  Descending Chicago Center
Tue 01:13:39 AM 40.9136 -84.8978 126° Southeast 172 198 9,000 50 Climbing Chicago Center
Tue 01:14:39 AM 40.8878 -84.8456 123° Southeast 171 197 9,000  Level Chicago Center
Tue 01:15:39 AM 40.8619 -84.7950 124° Southeast 169 194 9,000  Level Chicago Center
Tue 01:16:40 AM 40.8347 -84.7439 125° Southeast 170 196 9,000 -50 Level Chicago Center
Tue 01:17:40 AM 40.8092 -84.6900 122° Southeast 172 198 8,900 -50 Descending Chicago Center
Tue 01:18:41 AM 40.7878 -84.6322 116° Southeast 174 200 8,900 50 Level Chicago Center
Tue 01:19:41 AM 40.7675 -84.5761 115° Southeast 172 198 9,000  Climbing Chicago Center
Tue 01:20:41 AM 40.7461 -84.5200 117° Southeast 172 198 8,900  Descending Chicago Center
Tue 01:21:42 AM 40.7150 -84.4728 131° Southeast 172 198 9,000 50 Climbing Chicago Center
Tue 01:22:42 AM 40.6861 -84.4264 129° Southeast 168 193 9,000  Level Chicago Center
Tue 01:23:42 AM 40.6597 -84.3750 124° Southeast 168 193 9,000  Level Chicago Center
Tue 01:24:11 AM 40.6453 -84.3422 120° Southeast 171 197 9,000 -171 Level Indianapolis Center
Tue 01:24:52 AM 40.6319 -84.3108 119° Southeast 174 200 8,800 -238 Descending Indianapolis Center
Tue 01:25:52 AM 40.6058 -84.2533 121° Southeast 179 206 8,600 -298 Descending Indianapolis Center
Tue 01:26:53 AM 40.5814 -84.1939 118° Southeast 184 212 8,200 -347 Descending Indianapolis Center
Tue 01:27:53 AM 40.5567 -84.1336 118° Southeast 185 213 7,900 -350 Descending Indianapolis Center
Tue 01:28:53 AM 40.5311 -84.0764 120° Southeast 181 208 7,500 -400 Descending Indianapolis Center
Tue 01:29:08 AM 40.5206 -84.0589 128° Southeast 181 208 7,400 -393 Descending Indianapolis Center
Tue 01:29:54 AM 40.5039 -84.0208 120° Southeast 180 207 7,100 -393 Descending Indianapolis Center
Tue 01:30:09 AM 40.4936 -84.0033 128° Southeast 181 208 7,000 -300 Descending Indianapolis Center
Tue 01:30:54 AM 40.4769 -83.9644 119° Southeast 179 206 6,800 -364 Descending Indianapolis Center
Tue 01:31:15 AM 40.4647 -83.9392 122° Southeast 180 207 6,600 -393 Descending Indianapolis Center
Tue 01:31:55 AM 40.4500 -83.9083 122° Southeast 180 207 6,400 -393 Descending Indianapolis Center
Tue 01:32:16 AM 40.4375 -83.8836 124° Southeast 182 209 6,200 -300 Descending Indianapolis Center
Tue 01:32:55 AM 40.4239 -83.8492 117° Southeast 182 209 6,100 -333 Descending Indianapolis Center
Tue 01:33:10 AM 40.4144 -83.8286 121° Southeast 182 209 5,900 -400 Descending Indianapolis Center
Tue 01:33:55 AM 40.3989 -83.7908 118° Southeast 182 209 5,700 -269 Descending Indianapolis Center
Tue 01:34:17 AM 40.3878 -83.7675 122° Southeast 179 206 5,600 -295 Descending Indianapolis Center
Tue 01:34:56 AM 40.3736 -83.7342 119° Southeast 181 208 5,400 -393 Descending Indianapolis Center
Tue 01:35:18 AM 40.3625 -83.7122 124° Southeast 180 207 5,200 -400 Descending Indianapolis Center
Tue 01:35:56 AM 40.3464 -83.6781 122° Southeast 180 207 5,000 -444 Descending Indianapolis Center
Tue 01:36:12 AM 40.3369 -83.6597 124° Southeast 179 206 4,800 -400 Descending Indianapolis Center
Tue 01:36:56 AM 40.3214 -83.6219 118° Southeast 178 205 4,600 -295 Descending Indianapolis Center
Tue 01:37:13 AM 40.3139 -83.6050 120° Southeast 179 206 4,500 -393 Descending Indianapolis Center
Tue 01:37:57 AM 40.2956 -83.5667 122° Southeast 177 204 4,200 -400 Descending Indianapolis Center
Tue 01:38:13 AM 40.2864 -83.5494 125° Southeast 176 203 4,100 -300 Descending Indianapolis Center
Tue 01:38:57 AM 40.2714 -83.5111 117° Southeast 175 201 3,900 -295 Descending Indianapolis Center
Tue 01:39:14 AM 40.2631 -83.4975 129° Southeast 172 198 3,800 -400 Descending Indianapolis Center
Tue 01:39:57 AM 40.2469 -83.4567 117° Southeast 173 199 3,500 -393 Descending Indianapolis Center
Tue 01:40:15 AM 40.2397 -83.4428 124° Southeast 170 196 3,400 -393 Descending Indianapolis Center
Tue 01:40:58 AM 40.2242 -83.4039 118° Southeast 169 194 3,100 -500 Descending Indianapolis Center
Tue 01:41:15 AM 40.2144 -83.3878 128° Southeast 167 192 2,900 -200 Descending Indianapolis Center
Tue 01:41:58 AM 40.2033 -83.3581 116° Southeast 169 194 2,900  Level Indianapolis Center

Login

Don't have an account? Register now (free) for customized features, flight alerts, and more!